CDT,Max TemperatureF,Mean TemperatureF,Min TemperatureF,Max Dew PointF,MeanDew PointF,Min DewpointF,Max Humidity, Mean Humidity, Min Humidity, Max Sea Level PressureIn, Mean Sea Level PressureIn, Min Sea Level PressureIn, Max VisibilityMiles, Mean VisibilityMiles, Min VisibilityMiles, Max Wind SpeedMPH, Mean Wind SpeedMPH, Max Gust SpeedMPH,PrecipitationIn, CloudCover, Events, WindDirDegrees
2013-9-1,83,72,60,70,64,57,97,70,43,29.92,29.82,29.75,10,10,8,25,10,29,0.00,2,,307
2013-9-2,73,61,49,57,53,49,100,75,49,30.06,30.01,29.93,10,10,10,16,7,22,0.00,1,,343
2013-9-3,77,61,44,56,50,44,100,72,43,30.13,30.07,30.03,10,8,1,8,2,14,0.00,0,,248
2013-9-4,89,70,51,66,58,50,96,67,38,30.13,30.09,30.06,10,10,10,10,2,15,0.00,0,,255
2013-9-5,85,74,62,69,66,61,100,79,58,30.18,30.14,30.10,10,9,5,14,5,18,0.00,0,,90
2013-9-6,89,75,61,64,61,57,93,65,36,30.14,30.05,29.93,10,10,10,18,9,23,0.00,0,,160
2013-9-7,91,80,68,73,65,59,93,70,47,29.94,29.90,29.85,10,10,8,14,5,17,0.01,0,Thunderstorm,172
2013-9-8,76,73,69,70,67,65,97,86,74,29.99,29.92,29.87,10,9,6,20,11,24,0.00,5,,83
2013-9-9,99,84,68,70,66,61,100,65,29,29.86,29.80,29.73,10,7,2,23,10,29,0.00,2,,174
2013-9-10,97,83,68,67,63,60,79,55,30,29.99,29.90,29.82,10,10,10,24,10,30,0.00,1,,238
2013-9-11,85,73,60,66,63,60,93,70,47,30.07,30.04,29.98,10,10,5,14,4,17,0.06,4,Rain-Thunderstorm,274
2013-9-12,78,64,50,59,51,45,97,65,33,30.18,30.11,30.03,10,10,10,23,10,29,0.00,0,,337
2013-9-13,70,56,41,47,44,40,93,65,37,30.27,30.20,30.13,10,10,10,10,4,17,0.00,0,,29
2013-9-14,76,58,39,49,42,37,93,60,27,30.16,30.06,29.91,10,10,10,18,9,25,T,1,Rain,167
2013-9-15,66,59,51,59,54,46,93,80,67,30.24,30.00,29.87,10,9,2,20,9,23,0.38,7,Rain,28
2013-9-16,67,57,47,53,49,45,100,76,52,30.39,30.32,30.25,10,10,10,12,6,14,0.00,3,,70
2013-9-17,64,56,47,60,53,45,93,83,72,30.29,30.16,30.01,10,10,7,17,11,23,0.01,5,Rain,138
2013-9-18,89,76,63,70,65,61,100,75,50,30.02,29.88,29.75,10,6,2,21,11,25,0.05,6,Rain-Thunderstorm,169
2013-9-19,87,77,66,71,67,66,100,78,55,29.81,29.77,29.71,10,8,2,22,10,29,0.74,5,Rain-Thunderstorm,229
2013-9-20,66,58,49,64,52,47,93,77,60,29.95,29.89,29.82,10,10,10,18,11,26,0.00,5,,289
2013-9-21,68,55,42,50,46,41,96,72,48,30.01,29.96,29.91,10,10,10,14,5,22,0.00,0,,306
2013-9-22,74,58,41,52,48,41,100,72,44,30.01,29.96,29.91,10,10,10,15,7,20,0.00,0,,129
2013-9-23,74,61,48,50,48,46,93,67,41,30.02,29.96,29.90,10,10,10,22,11,28,0.00,0,,131
2013-9-24,73,61,48,54,50,46,93,70,47,29.95,29.92,29.88,10,10,10,16,8,,0.00,0,,106
2013-9-25,75,60,45,54,50,44,100,73,46,29.98,29.92,29.88,10,9,4,14,7,17,0.00,0,,102
2013-9-26,83,68,53,59,55,50,89,66,43,29.97,29.93,29.89,10,10,6,22,12,28,0.00,1,,142
2013-9-27,84,73,62,62,58,55,84,64,43,30.01,29.95,29.90,10,10,10,25,13,32,0.00,0,,155
2013-9-28,71,59,46,65,56,46,93,78,63,30.02,29.88,29.79,10,9,2,24,9,30,0.23,5,Rain,229
2013-9-29,73,56,39,49,43,39,100,68,35,30.07,30.01,29.93,10,8,1,17,7,21,0.00,0,,176
2013-9-30,76,63,50,54,48,44,83,61,38,29.94,29.84,29.74,10,10,10,24,11,32,0.00,0,,175